Time;durP1;ratioP1;P1;durP2;ratioP2;P2;SDS_P1;SDS_P2;PMS_P1;PMS_P2;Temp;Humidity;BMP_temperature;BMP_pressure;BME280_temperature;BME280_humidity;BME280_pressure;Samples;Min_cycle;Max_cycle;Signal;HPM_P1;HPM_P2
2022/04/14 00:02:09;;;;;;;;;;;;;;;;;;;;;
2022/04/14 00:04:59;;;;;;;;;;;;;;;;;;;;;
2022/04/14 00:07:37;;;;;;;;;13.00;13.00;;;;;14.61;100.00;101189.41;6300897;22;72450;-94
2022/04/14 00:10:30;;;;;;;;;16.67;15.00;;;;;14.63;100.00;101195.66;6275881;22;45353;-94
2022/04/14 00:13:20;;;;;;;;;;;;;;;;;;;;;
2022/04/14 00:16:28;;;;;;;;;;;;;;;;;;;;;
2022/04/14 00:19:23;;;;;;;;;;;;;;;;;;;;;
2022/04/14 00:22:44;;;;;;;;;;;;;;;;;;;;;
2022/04/14 00:29:19;;;;;;;;;;;;;;;;;;;;;
2022/04/14 00:31:56;;;;;;;;;16.00;13.00;;;;;14.38;100.00;101185.09;6238186;22;72416;-94
2022/04/14 00:34:33;;;;;;;;;13.33;12.00;;;;;14.38;100.00;101189.50;6216729;22;45463;-93
2022/04/14 00:37:41;;;;;;;;;14.67;12.67;;;;;14.43;100.00;101198.44;6242253;22;45241;-93
2022/04/14 00:40:53;;;;;;;;;14.00;10.67;;;;;14.41;100.00;101189.56;6244519;22;46804;-94
2022/04/14 00:43:55;;;;;;;;;19.00;14.00;;;;;14.34;100.00;101171.72;6216413;22;45370;-92
2022/04/14 00:46:44;;;;;;;;;15.67;13.33;;;;;14.27;100.00;101168.88;6220315;22;45454;-93
2022/04/14 00:49:40;;;;;;;;;;;;;;;;;;;;;
2022/04/14 00:52:34;;;;;;;;;16.00;14.00;;;;;14.24;100.00;101171.38;6239210;22;73654;-93
2022/04/14 00:55:17;;;;;;;;;12.33;12.00;;;;;14.25;100.00;101183.72;6241635;22;45635;-94
2022/04/14 00:58:08;;;;;;;;;14.00;13.00;;;;;14.17;100.00;101167.59;6213851;22;45401;-94
2022/04/14 01:03:58;;;;;;;;;;;;;;;;;;;;;
2022/04/14 01:06:30;;;;;;;;;18.33;15.67;;;;;14.21;100.00;101184.47;6296221;22;70775;-94
2022/04/14 01:09:29;;;;;;;;;13.33;11.67;;;;;14.06;100.00;101161.03;6362845;22;45426;-94
2022/04/14 01:16:56;;;;;;;;;13.67;10.33;;;;;14.15;100.00;101173.66;6291917;22;45650;-94
2022/04/14 01:19:06;;;;;;;;;13.67;10.67;;;;;14.05;100.00;101144.28;6288558;22;45454;-94
2022/04/14 01:22:33;;;;;;;;;;;;;;;;;;;;;
2022/04/14 01:26:40;;;;;;;;;;;;;;;;;;;;;
2022/04/14 01:32:15;;;;;;;;;;;;;;;;;;;;;
2022/04/14 01:34:48;;;;;;;;;10.33;10.00;;;;;14.19;100.00;101142.19;6208906;22;67617;-94
2022/04/14 01:38:04;;;;;;;;;;;;;;;;;;;;;
2022/04/14 01:40:37;;;;;;;;;9.67;9.67;;;;;14.12;100.00;101126.94;6178566;23;75026;-94
2022/04/14 01:43:07;;;;;;;;;13.33;11.00;;;;;14.14;100.00;101130.56;6179622;22;45395;-94
2022/04/14 01:45:38;;;;;;;;;8.33;8.33;;;;;14.17;100.00;101132.41;6154403;23;45607;-94
2022/04/14 01:48:04;;;;;;;;;11.00;9.00;;;;;14.11;100.00;101121.59;6153863;23;45577;-94
2022/04/14 01:50:31;;;;;;;;;12.67;10.00;;;;;14.14;100.00;101122.63;6154054;23;48219;-94
2022/04/14 01:53:02;;;;;;;;;67.75;53.25;;;;;14.05;100.00;101109.06;6130676;23;45563;-95
2022/04/14 01:55:36;;;;;;;;;7.33;7.33;;;;;14.11;100.00;101119.88;6149708;23;45550;-96
2022/04/14 01:58:12;;;;;;;;;8.67;8.67;;;;;14.03;100.00;101110.75;6149862;23;45256;-94
2022/04/14 02:00:38;;;;;;;;;9.33;9.33;;;;;14.14;100.00;101132.28;6149438;23;47936;-95
2022/04/14 02:03:06;;;;;;;;;11.00;9.67;;;;;14.07;100.00;101116.22;6124939;23;45394;-95
2022/04/14 02:05:34;;;;;;;;;12.00;10.33;;;;;13.99;100.00;101104.50;6119189;23;46053;-94
2022/04/14 02:08:15;;;;;;;;;;;;;;;;;;;;;
2022/04/14 02:10:50;;;;;;;;;10.33;10.33;;;;;14.00;100.00;101121.19;6145457;23;73915;-95
2022/04/14 02:13:16;;;;;;;;;14.00;9.33;;;;;13.96;100.00;101125.47;6120642;23;45415;-94
2022/04/14 02:18:55;;;;;;;;;9.67;9.00;;;;;13.95;100.00;101134.22;6197397;23;44838;-94
2022/04/14 02:21:59;;;;;;;;;;;;;;;;;;;;;
2022/04/14 02:24:34;;;;;;;;;10.00;8.00;;;;;13.94;100.00;101124.53;6133638;23;73329;-94
2022/04/14 02:27:35;;;;;;;;;;;;;;;;;;;;;
2022/04/14 02:30:33;;;;;;;;;;;;;;;;;;;;;
2022/04/14 02:33:22;;;;;;;;;;;;;;;;;;;;;
2022/04/14 02:36:48;;;;;;;;;;;;;;;;;;;;;
2022/04/14 02:39:25;;;;;;;;;11.33;9.00;;;;;13.78;100.00;101104.56;6119282;23;68769;-95
2022/04/14 02:41:57;;;;;;;;;13.67;12.00;;;;;13.83;100.00;101110.94;6119627;23;45450;-95
2022/04/14 02:44:25;;;;;;;;;12.00;12.00;;;;;13.72;100.00;101097.31;6094978;23;48047;-95
2022/04/14 02:46:56;;;;;;;;;10.67;10.67;;;;;13.75;100.00;101113.28;6119456;23;45495;-95
2022/04/14 02:49:26;;;;;;;;;11.33;9.33;;;;;13.76;100.00;101115.06;6094639;23;45440;-95
2022/04/14 02:51:57;;;;;;;;;11.00;10.00;;;;;13.73;100.00;101117.59;6095327;23;45446;-94
2022/04/14 02:54:27;;;;;;;;;11.67;9.00;;;;;13.66;100.00;101112.94;6119947;23;47029;-96
2022/04/14 02:57:20;;;;;;;;;11.67;11.67;;;;;13.63;100.00;101111.94;6275464;22;45496;-94
2022/04/14 03:00:03;;;;;;;;;;;;;;;;;;;;;
2022/04/14 03:02:44;;;;;;;;;16.00;11.67;;;;;13.66;100.00;101116.44;6335538;22;69227;-94
2022/04/14 03:05:17;;;;;;;;;16.33;12.00;;;;;13.57;100.00;101102.91;6308720;22;47082;-94
2022/04/14 03:08:10;;;;;;;;;13.00;12.00;;;;;13.57;100.00;101114.38;6366758;22;45469;-94
2022/04/14 03:10:36;;;;;;;;;11.67;11.00;;;;;13.54;100.00;101098.38;6340534;22;45339;-94
2022/04/14 03:13:04;;;;;;;;;11.00;11.00;;;;;13.55;100.00;101101.91;6340787;22;45625;-94
2022/04/14 03:15:31;;;;;;;;;17.33;14.33;;;;;13.51;100.00;101109.72;6366229;22;47099;-95
2022/04/14 03:17:57;;;;;;;;;15.67;12.00;;;;;13.51;100.00;101114.97;6339544;22;45671;-94
2022/04/14 03:20:25;;;;;;;;;11.00;10.00;;;;;13.54;100.00;101116.84;6340424;22;45647;-94
2022/04/14 03:22:50;;;;;;;;;11.00;11.00;;;;;13.43;100.00;101094.41;6340649;22;45342;-95
2022/04/14 03:25:21;;;;;;;;;13.33;11.33;;;;;13.41;100.00;101087.34;6340427;22;46738;-94
2022/04/14 03:27:47;;;;;;;;;11.67;11.33;;;;;13.45;100.00;101103.31;6365710;22;45436;-94
2022/04/14 03:30:13;;;;;;;;;17.00;13.00;;;;;13.43;100.00;101094.41;6366571;22;45347;-94
2022/04/14 03:32:46;;;;;;;;;17.00;17.00;;;;;13.43;100.00;101105.88;6366539;22;45556;-94
2022/04/14 03:35:15;;;;;;;;;15.67;12.33;;;;;13.46;100.00;101110.34;6366299;22;48265;-94
2022/04/14 03:37:42;;;;;;;;;16.67;14.00;;;;;13.47;100.00;101123.63;6365845;22;45625;-95
2022/04/14 03:40:08;;;;;;;;;17.67;14.00;;;;;13.39;100.00;101115.41;6366838;22;45228;-95
2022/04/14 03:42:35;;;;;;;;;18.33;12.33;;;;;13.46;100.00;101128.81;6366906;22;45296;-95
2022/04/14 03:45:01;;;;;;;;;16.67;12.33;;;;;13.34;100.00;101116.97;6338741;22;47774;-94
2022/04/14 03:47:29;;;;;;;;;19.33;18.00;;;;;13.43;100.00;101136.59;6339873;22;45874;-94
2022/04/14 03:49:57;;;;;;;;;14.33;13.67;;;;;13.34;100.00;101122.25;6366881;22;45404;-94
2022/04/14 03:52:27;;;;;;;;;21.67;20.33;;;;;13.28;100.00;101119.34;6366348;22;45670;-95
2022/04/14 03:54:56;;;;;;;;;20.67;17.67;;;;;13.28;100.00;101114.06;6366162;22;46999;-95
2022/04/14 03:57:21;;;;;;;;;13.50;10.00;;;;;13.27;100.00;101125.47;6339885;22;45249;-95
2022/04/14 03:59:47;;;;;;;;;19.75;19.00;;;;;13.21;100.00;101104.13;6339922;22;45187;-94
2022/04/14 04:02:14;;;;;;;;;20.75;19.00;;;;;13.17;100.00;101104.00;6340250;22;45452;-95
2022/04/14 04:04:40;;;;;;;;;20.00;18.00;;;;;13.23;100.00;101121.78;6339190;22;46867;-94
2022/04/14 04:07:06;;;;;;;;;17.00;15.67;;;;;13.26;100.00;101113.09;6339160;22;45438;-94
2022/04/14 04:09:35;;;;;;;;;16.00;15.33;;;;;13.17;100.00;101109.25;6366716;22;45429;-96
2022/04/14 04:12:01;;;;;;;;;20.33;17.33;;;;;13.21;100.00;101109.38;6366476;22;45280;-95
2022/04/14 04:14:26;;;;;;;;;14.33;14.33;;;;;13.23;100.00;101116.53;6312706;22;47124;-94
2022/04/14 04:16:52;;;;;;;;;16.75;15.25;;;;;13.18;100.00;101112.81;6339900;22;45489;-94
2022/04/14 04:19:17;;;;;;;;;18.67;16.67;;;;;13.13;100.00;101107.34;6340200;22;45295;-95
2022/04/14 04:21:43;;;;;;;;;16.00;14.00;;;;;13.16;100.00;101119.75;6340052;22;45408;-93
2022/04/14 04:24:11;;;;;;;;;16.00;13.33;;;;;13.10;100.00;101109.84;6339303;22;48034;-95
2022/04/14 04:26:39;;;;;;;;;18.33;16.67;;;;;13.15;100.00;101121.47;6339426;22;45646;-94
2022/04/14 04:29:04;;;;;;;;;16.67;13.67;;;;;13.05;100.00;101107.03;6339584;22;45299;-95
2022/04/14 04:31:32;;;;;;;;;13.00;12.33;;;;;13.07;100.00;101115.00;6339737;22;45243;-94
2022/04/14 04:33:57;;;;;;;;;13.33;12.67;;;;;13.05;100.00;101124.56;6339684;22;47126;-93
2022/04/14 04:36:23;;;;;;;;;13.00;12.67;;;;;13.02;100.00;101127.06;6339656;22;45282;-94
2022/04/14 04:38:48;;;;;;;;;10.67;10.67;;;;;13.02;100.00;101127.97;6339324;22;45794;-95
2022/04/14 04:41:16;;;;;;;;;13.33;9.67;;;;;13.03;100.00;101132.44;6346334;22;45340;-95
2022/04/14 04:43:43;;;;;;;;;13.67;11.00;;;;;12.95;100.00;101123.28;6344510;22;47986;-95
2022/04/14 04:46:09;;;;;;;;;12.00;12.00;;;;;12.94;100.00;101124.13;6371709;22;45205;-95
2022/04/14 04:48:35;;;;;;;;;15.00;11.67;;;;;13.03;100.00;101136.78;6343635;22;45151;-94
2022/04/14 04:51:00;;;;;;;;;15.33;14.33;;;;;12.89;100.00;101116.03;6368532;22;45551;-94
2022/04/14 04:53:27;;;;;;;;;13.33;12.00;;;;;12.96;100.00;101131.25;6340782;22;47605;-94
2022/04/14 04:55:53;;;;;;;;;16.33;13.33;;;;;12.95;100.00;101133.84;6341744;22;45582;-95
2022/04/14 04:58:20;;;;;;;;;10.00;6.33;;;;;12.84;100.00;101114.94;6343814;22;45300;-94
2022/04/14 05:00:46;;;;;;;;;13.33;13.33;;;;;12.90;100.00;101128.38;6368487;22;45754;-95
2022/04/14 05:03:11;;;;;;;;;16.33;13.00;;;;;12.77;100.00;101108.53;6340393;22;47402;-95
2022/04/14 05:05:38;;;;;;;;;15.00;13.00;;;;;12.90;100.00;101138.91;6342262;22;45457;-94
2022/04/14 05:08:07;;;;;;;;;15.00;13.33;;;;;12.89;100.00;101137.09;6367189;22;45486;-95
2022/04/14 05:10:33;;;;;;;;;18.00;13.67;;;;;12.84;100.00;101134.28;6340187;22;45288;-94
2022/04/14 05:12:59;;;;;;;;;17.67;14.67;;;;;12.77;100.00;101128.69;6340312;22;48172;-94
2022/04/14 05:15:24;;;;;;;;;20.00;15.00;;;;;12.74;100.00;101119.84;6367289;22;45399;-94
2022/04/14 05:17:50;;;;;;;;;15.33;15.33;;;;;12.77;100.00;101121.69;6340411;22;45645;-94
2022/04/14 05:20:17;;;;;;;;;12.67;11.67;;;;;12.73;100.00;101118.00;6340731;22;45633;-95
2022/04/14 05:22:43;;;;;;;;;14.00;10.67;;;;;12.79;100.00;101138.47;6366735;22;46645;-94
2022/04/14 05:25:09;;;;;;;;;14.33;14.33;;;;;12.79;100.00;101145.47;6340404;22;45498;-95
2022/04/14 05:27:34;;;;;;;;;17.33;16.00;;;;;12.72;100.00;101139.03;6341009;22;45336;-94
2022/04/14 05:30:00;;;;;;;;;14.67;10.00;;;;;12.70;100.00;101125.81;6341196;22;45326;-95
2022/04/14 05:32:25;;;;;;;;;13.00;13.00;;;;;12.69;100.00;101133.63;6339989;22;47888;-94
2022/04/14 05:34:50;;;;;;;;;17.33;14.67;;;;;12.74;100.00;101142.63;6340748;22;45280;-94
2022/04/14 05:37:16;;;;;;;;;13.00;12.67;;;;;12.78;100.00;101146.31;6340433;22;45481;-94
2022/04/14 05:39:41;;;;;;;;;16.00;15.33;;;;;12.82;100.00;101156.13;6368389;22;45222;-95
2022/04/14 05:42:10;;;;;;;;;17.50;14.50;;;;;12.73;100.00;101132.94;6368138;22;47091;-94
2022/04/14 05:44:36;;;;;;;;;17.00;15.67;;;;;12.74;100.00;101132.09;6367347;22;46056;-94
2022/04/14 05:47:01;;;;;;;;;18.33;16.00;;;;;12.88;100.00;101151.13;6340928;22;45511;-94
2022/04/14 05:49:27;;;;;;;;;14.67;13.67;;;;;12.90;100.00;101138.91;6340677;22;45410;-95
2022/04/14 05:51:52;;;;;;;;;16.00;13.00;;;;;12.93;100.00;101139.06;6340452;22;46790;-94
2022/04/14 05:54:18;;;;;;;;;19.33;16.67;;;;;12.96;100.00;101127.75;6340283;22;45680;-94
2022/04/14 05:56:43;;;;;;;;;16.00;13.67;;;;;13.11;100.00;101148.56;6340718;22;45276;-95
2022/04/14 05:59:16;;;;;;;;;15.67;15.33;;;;;13.16;100.00;101144.38;6340203;22;45176;-94
2022/04/14 06:01:46;;;;;;;;;16.00;14.33;;;;;13.17;100.00;101137.34;6367211;22;47140;-94
2022/04/14 06:04:12;;;;;;;;;18.00;13.67;;;;;13.26;100.00;101147.38;6358390;22;45391;-95
2022/04/14 06:06:38;;;;;;;;;17.00;16.67;;;;;13.32;100.00;101150.28;6360905;22;45182;-94
2022/04/14 06:09:06;;;;;;;;;26.67;23.00;;;;;13.40;100.00;101162.00;6365754;22;44829;-94
2022/04/14 06:11:31;;;;;;;;;21.00;18.25;;;;;13.36;100.00;101140.75;6394193;22;47524;-95
2022/04/14 06:13:57;;;;;;;;;27.75;22.50;;;;;13.52;100.00;101163.34;6344217;22;45380;-95
2022/04/14 06:16:25;;;;;;;;;29.00;25.25;;;;;13.46;100.00;101148.19;6341570;22;45394;-96
2022/04/14 06:18:51;;;;;;;;;26.25;21.25;;;;;13.60;100.00;101171.63;6343487;22;45448;-94
2022/04/14 06:21:16;;;;;;;;;27.75;23.50;;;;;13.62;100.00;101177.84;6341953;22;47944;-95
2022/04/14 06:23:41;;;;;;;;;28.50;22.25;;;;;13.68;100.00;101179.84;6341231;22;45268;-94
2022/04/14 06:26:07;;;;;;;;;24.00;20.67;;;;;13.65;100.00;101150.69;6336811;22;45615;-83
2022/04/14 06:28:34;;;;;;;;;24.25;22.75;;;;;13.83;100.00;101168.97;6364335;22;45289;-85
2022/04/14 06:31:00;;;;;;;;;23.33;21.33;;;;;13.92;100.00;101181.59;6335660;22;47477;-83
2022/04/14 06:33:30;;;;;;;;;21.00;19.33;;;;;13.97;100.00;101180.03;6363905;22;45406;-84
2022/04/14 06:35:55;;;;;;;;;16.00;15.25;;;;;14.00;100.00;101189.81;6364545;22;45356;-83
2022/04/14 06:38:21;;;;;;;;;22.33;18.67;;;;;14.04;100.00;101189.13;6363790;22;45237;-84
2022/04/14 06:40:47;;;;;;;;;21.33;17.67;;;;;14.07;100.00;101200.69;6364435;22;45475;-84
2022/04/14 06:43:12;;;;;;;;;24.67;17.67;;;;;14.11;100.00;101208.72;6364805;22;45295;-84
2022/04/14 06:45:37;;;;;;;;;20.67;19.33;;;;;14.14;100.00;101214.13;6363897;22;45266;-84
2022/04/14 06:48:03;;;;;;;;;23.00;21.67;;;;;14.15;100.00;101207.97;6363836;22;45522;-84
2022/04/14 06:50:28;;;;;;;;;21.67;15.33;;;;;14.15;100.00;101210.63;6364270;22;45395;-84
2022/04/14 06:52:54;;;;;;;;;18.67;17.67;;;;;14.21;100.00;101205.59;6362320;22;45364;-83
2022/04/14 06:55:21;;;;;;;;;25.67;22.33;;;;;14.24;100.00;101203.06;6364155;22;45502;-83
2022/04/14 06:57:47;;;;;;;;;23.67;18.00;;;;;14.29;100.00;101205.88;6365091;22;45431;-84
2022/04/14 07:00:13;;;;;;;;;19.67;19.33;;;;;14.34;100.00;101216.59;6362416;22;45864;-82
2022/04/14 07:02:49;;;;;;;;;23.67;18.00;;;;;14.40;100.00;101223.03;6338709;22;45348;-83
2022/04/14 07:05:15;;;;;;;;;23.67;20.33;;;;;14.48;100.00;101203.94;6363952;22;45449;-82
2022/04/14 07:07:40;;;;;;;;;23.00;19.33;;;;;14.59;100.00;101201.66;6362974;22;45323;-82
2022/04/14 07:10:06;;;;;;;;;22.33;20.67;;;;;14.68;100.00;101224.88;6364329;22;45967;-82
2022/04/14 07:12:31;;;;;;;;;28.67;26.00;;;;;14.81;100.00;101213.00;6335727;22;45619;-84
2022/04/14 07:14:56;;;;;;;;;28.75;23.00;;;;;14.92;100.00;101210.78;6363715;22;45331;-84
2022/04/14 07:17:22;;;;;;;;;29.75;27.25;;;;;15.04;100.00;101218.22;6330133;22;45434;-82
2022/04/14 07:19:48;;;;;;;;;29.25;24.75;;;;;15.11;100.00;101214.03;6363939;22;45740;-82
2022/04/14 07:22:18;;;;;;;;;26.25;24.50;;;;;15.22;100.00;101217.97;6361959;22;45412;-83
2022/04/14 07:24:43;;;;;;;;;35.50;30.00;;;;;15.33;100.00;101230.66;6363618;22;45283;-82
2022/04/14 07:27:10;;;;;;;;;34.75;32.75;;;;;15.39;100.00;101230.84;6362028;22;45262;-83
2022/04/14 07:29:36;;;;;;;;;42.00;33.75;;;;;15.48;100.00;101244.38;6363444;22;45463;-83
2022/04/14 07:32:02;;;;;;;;;43.75;34.00;;;;;15.58;100.00;101281.72;6361866;22;45215;-81
2022/04/14 07:34:27;;;;;;;;;41.00;35.25;;;;;15.64;100.00;101274.00;6362211;22;45386;-83
2022/04/14 07:36:53;;;;;;;;;31.50;30.50;;;;;15.69;100.00;101277.69;6335016;22;45587;-82
2022/04/14 07:39:18;;;;;;;;;38.75;33.00;;;;;15.77;100.00;101291.16;6333818;22;48000;-83
2022/04/14 07:41:44;;;;;;;;;32.75;28.75;;;;;15.86;100.00;101288.81;6363673;22;45327;-83
2022/04/14 07:44:09;;;;;;;;;33.00;31.75;;;;;15.90;100.00;101281.84;6306590;22;45402;-83
2022/04/14 07:46:38;;;;;;;;;30.75;27.25;;;;;15.97;100.00;101273.28;6333022;22;45395;-83
2022/04/14 07:49:04;;;;;;;;;31.50;28.75;;;;;16.06;100.00;101274.44;6363392;22;46459;-83
2022/04/14 07:51:29;;;;;;;;;23.67;22.67;;;;;16.12;100.00;101289.63;6363140;22;45372;-83
2022/04/14 07:53:54;;;;;;;;;26.67;24.00;;;;;16.21;100.00;101291.66;6361707;22;46044;-83
2022/04/14 07:56:22;;;;;;;;;29.75;23.00;;;;;16.27;100.00;101291.84;6334163;22;45597;-83
2022/04/14 07:58:47;;;;;;;;;21.67;18.33;;;;;16.30;100.00;101314.03;6362028;22;45242;-83
2022/04/14 08:01:13;;;;;;;;;25.33;20.33;;;;;16.37;100.00;101327.44;6362406;22;45680;-83
2022/04/14 08:03:39;;;;;;;;;25.33;21.33;;;;;16.44;100.00;101326.78;6363217;22;45296;-83
2022/04/14 08:06:05;;;;;;;;;24.00;21.33;;;;;16.52;100.00;101335.88;6362948;22;45735;-84
2022/04/14 08:08:31;;;;;;;;;20.33;15.00;;;;;16.60;100.00;101338.75;6332251;22;47052;-84
2022/04/14 08:11:01;;;;;;;;;21.67;18.00;;;;;16.69;100.00;101338.13;6334183;22;45460;-84
2022/04/14 08:13:29;;;;;;;;;23.67;19.67;;;;;16.77;100.00;101348.97;6363479;22;45616;-84
2022/04/14 08:15:54;;;;;;;;;26.33;24.33;;;;;16.84;100.00;101356.25;6363889;22;45269;-84
2022/04/14 08:18:20;;;;;;;;;22.00;19.67;;;;;16.94;100.00;101377.72;6363214;22;46003;-84
2022/04/14 08:20:45;;;;;;;;;28.25;24.00;;;;;17.02;100.00;101380.59;6361962;22;45385;-84
2022/04/14 08:23:14;;;;;;;;;24.67;21.67;;;;;17.11;100.00;101391.44;6362076;22;45750;-84
2022/04/14 08:25:40;;;;;;;;;31.00;28.50;;;;;17.19;100.00;101381.09;6363495;22;45391;-84
2022/04/14 08:28:06;;;;;;;;;33.00;29.00;;;;;17.29;100.00;101398.19;6364233;22;46391;-84
2022/04/14 08:30:33;;;;;;;;;28.75;26.25;;;;;17.40;100.00;101407.34;6360399;22;45407;-84
2022/04/14 08:33:01;;;;;;;;;27.00;26.33;;;;;17.50;100.00;101420.84;6362496;22;45320;-84
2022/04/14 08:35:26;;;;;;;;;22.00;18.00;;;;;17.57;100.00;101430.78;6333221;22;45500;-84
2022/04/14 08:37:52;;;;;;;;;20.00;16.67;;;;;17.67;100.00;101441.66;6361310;22;46245;-84
2022/04/14 08:40:23;;;;;;;;;24.33;18.67;;;;;17.75;100.00;101441.00;6362985;22;45336;-84
2022/04/14 08:42:55;;;;;;;;;21.67;18.00;;;;;17.83;100.00;101445.63;6362698;22;45293;-83
2022/04/14 08:45:23;;;;;;;;;17.67;15.67;;;;;17.92;100.00;101453.81;6361429;22;45233;-84
2022/04/14 08:47:50;;;;;;;;;18.67;14.00;;;;;17.99;100.00;101486.75;6360765;22;45995;-84
2022/04/14 08:50:16;;;;;;;;;17.67;16.33;;;;;18.06;100.00;101488.72;6334207;22;45601;-84
2022/04/14 08:52:42;;;;;;;;;16.67;14.67;;;;;18.12;100.00;101500.34;6333671;22;45359;-84
2022/04/14 08:55:14;;;;;;;;;23.00;19.33;;;;;18.15;100.00;101508.41;6361580;22;45403;-84
2022/04/14 08:57:43;;;;;;;;;19.00;17.67;;;;;18.19;100.00;101512.94;6359271;22;48112;-84
2022/04/14 09:00:10;;;;;;;;;23.33;21.00;;;;;18.23;100.00;101516.59;6359073;22;45377;-84
2022/04/14 09:02:37;;;;;;;;;18.67;17.00;;;;;18.25;100.00;101536.13;6360724;22;45668;-85
2022/04/14 09:05:03;;;;;;;;;23.00;18.00;;;;;18.24;100.00;101524.63;6363087;22;45322;-84
2022/04/14 09:07:29;;;;;;;;;27.67;18.67;;;;;18.30;100.00;101540.72;6360706;22;47618;-85
2022/04/14 09:09:54;;;;;;;;;19.33;16.00;;;;;18.36;100.00;101534.66;6361625;22;45539;-84
2022/04/14 09:12:20;;;;;;;;;20.33;17.00;;;;;18.44;100.00;101548.16;6362185;22;45217;-84
2022/04/14 09:14:47;;;;;;;;;17.00;15.00;;;;;18.51;100.00;101559.84;6363341;22;45427;-84
2022/04/14 09:17:13;;;;;;;;;19.00;17.33;;;;;18.57;100.00;101545.81;6361887;22;46492;-84
2022/04/14 09:19:38;;;;;;;;;14.33;13.33;;;;;18.64;100.00;101553.06;6363154;22;45780;-84
2022/04/14 09:22:13;;;;;;;;;19.67;15.67;;;;;18.68;100.00;101546.97;6361930;22;45290;-86
2022/04/14 09:24:40;;;;;;;;;16.67;14.00;;;;;18.78;100.00;101552.50;6334247;22;45448;-84
2022/04/14 09:27:07;;;;;;;;;17.67;16.00;;;;;18.87;100.00;101556.28;6334008;22;47284;-84
2022/04/14 09:29:32;;;;;;;;;17.33;16.00;;;;;18.93;100.00;101552.88;6362541;22;45233;-84
2022/04/14 09:31:58;;;;;;;;;12.00;12.00;;;;;19.03;100.00;101561.97;6333585;22;45284;-85
2022/04/14 09:34:49;;;;;;;;;14.33;13.67;;;;;19.16;100.00;101567.56;6334401;22;45482;-86
2022/04/14 09:37:15;;;;;;;;;20.67;18.00;;;;;19.24;100.00;101562.44;6334411;22;46971;-84
2022/04/14 09:39:53;;;;;;;;;19.00;15.33;;;;;19.39;100.00;101569.88;6335955;22;45350;-84
2022/04/14 09:42:21;;;;;;;;;12.33;10.33;;;;;19.46;100.00;101579.78;6364992;22;45355;-85
2022/04/14 09:44:46;;;;;;;;;14.33;10.67;;;;;19.56;100.00;101585.34;6335739;22;45646;-84
2022/04/14 09:47:15;;;;;;;;;13.00;10.00;;;;;19.66;100.00;101579.34;6334960;22;47117;-85
2022/04/14 09:49:41;;;;;;;;;9.67;8.33;;;;;19.74;100.00;101599.00;6362845;22;45271;-85
2022/04/14 09:52:09;;;;;;;;;11.00;9.33;;;;;19.84;100.00;101623.19;6367634;22;45335;-85
2022/04/14 09:54:34;;;;;;;;;10.00;9.00;;;;;19.88;100.00;101611.72;6347488;22;45287;-85
2022/04/14 09:56:59;;;;;;;;;9.67;9.33;;;;;19.95;100.00;101623.41;6347312;22;56955;-84
2022/04/14 09:59:28;;;;;;;;;10.33;9.00;;;;;20.03;100.00;101626.22;6375920;22;47921;-84
2022/04/14 10:02:13;;;;;;;;;10.67;9.67;;;;;20.10;100.00;101638.81;6366743;22;45417;-84
2022/04/14 10:04:41;;;;;;;;;11.33;11.00;;;;;20.14;100.00;101642.47;6365071;22;45387;-85
2022/04/14 10:07:13;;;;;;;;;9.67;8.33;;;;;20.24;100.00;101636.44;6360542;22;48226;-85
2022/04/14 10:09:44;;;;;;;;;13.67;10.00;;;;;20.25;100.00;101654.25;6364544;22;45540;-84
2022/04/14 10:12:19;;;;;;;;;11.00;9.67;;;;;20.33;100.00;101651.72;6357209;22;45372;-88
2022/04/14 10:15:10;;;;;;;;;9.33;8.67;;;;;20.41;100.00;101651.88;6338250;22;45225;-91
2022/04/14 10:17:40;;;;;;;;;9.00;7.67;;;;;20.59;100.00;101651.28;6343073;22;47239;-95
2022/04/14 10:20:08;;;;;;;;;17.33;13.33;;;;;20.71;100.00;101652.41;6370316;22;45290;-92
2022/04/14 10:22:35;;;;;;;;;9.67;8.33;;;;;20.74;100.00;101674.69;6380137;22;44990;-96
2022/04/14 10:25:04;;;;;;;;;10.67;9.67;;;;;20.76;100.00;101669.38;6372175;22;45271;-96
2022/04/14 10:27:33;;;;;;;;;7.67;7.00;;;;;20.80;100.00;101672.97;6370389;22;47499;-96
2022/04/14 10:30:03;;;;;;;;;10.67;10.67;;;;;20.77;100.00;101655.19;6348893;22;45337;-96
2022/04/14 10:32:30;;;;;;;;;9.33;8.67;;;;;20.93;100.00;101674.09;6318140;22;45304;-96
2022/04/14 10:34:57;;;;;;;;;10.00;8.50;;;;;20.94;100.00;101651.88;6323932;22;45572;-96
2022/04/14 10:39:51;;;;;;;;;11.67;10.33;;;;;21.15;100.00;101653.13;6345645;22;45165;-95
2022/04/14 10:42:24;;;;;;;;;12.00;11.00;;;;;21.28;100.00;101664.91;6316520;22;45326;-96
2022/04/14 10:44:52;;;;;;;;;11.00;10.00;;;;;21.52;100.00;101687.50;6325360;22;45313;-96
2022/04/14 10:47:56;;;;;;;;;12.67;10.00;;;;;21.72;100.00;101681.56;6318632;22;46616;-96
2022/04/14 10:50:32;;;;;;;;;8.33;8.33;;;;;22.15;100.00;101720.44;6321445;22;45182;-92
2022/04/14 10:53:09;;;;;;;;;5.00;5.00;;;;;22.31;100.00;101703.72;6346579;22;45260;-96
2022/04/14 10:55:49;;;;;;;;;12.67;10.00;;;;;22.82;100.00;101728.31;6312489;22;45194;-96
2022/04/14 10:58:49;;;;;;;;;11.33;8.67;;;;;23.62;100.00;101710.22;6315607;22;47970;-96
2022/04/14 11:01:15;;;;;;;;;8.67;8.67;;;;;25.18;100.00;101730.38;6183173;23;45265;-88
2022/04/14 11:03:55;;;;;;;;;8.67;7.33;;;;;26.75;100.00;101751.44;6174452;23;45603;-86
2022/04/14 11:06:47;;;;;;;;;10.00;8.33;;;;;27.75;100.00;101764.06;6175098;23;45485;-86
2022/04/14 11:09:40;;;;;;;;;9.00;9.00;;;;;30.56;100.00;101758.59;6173498;23;48132;-89
2022/04/14 11:12:06;;;;;;;;;9.33;6.00;;;;;33.28;100.00;101772.69;6173950;23;45382;-86
2022/04/14 11:14:51;;;;;;;;;8.00;7.00;;;;;35.25;100.00;101805.19;6174669;23;45471;-86
2022/04/14 11:17:52;;;;;;;;;8.33;7.33;;;;;35.95;100.00;101850.41;6174151;23;45512;-86
2022/04/14 11:20:30;;;;;;;;;7.33;6.33;;;;;37.32;100.00;101857.59;6177319;23;45327;-86
2022/04/14 11:23:04;;;;;;;;;2.33;2.00;;;;;38.47;100.00;101871.72;6174613;23;45736;-86
2022/04/14 11:25:38;;;;;;;;;3.00;3.00;;;;;39.15;100.00;101868.75;6148910;23;45333;-86
2022/04/14 11:28:19;;;;;;;;;2.67;2.00;;;;;40.59;100.00;101878.28;6175549;23;45270;-87
2022/04/14 11:30:46;;;;;;;;;1.67;1.67;;;;;42.03;100.00;101880.63;6174064;23;47154;-87
2022/04/14 11:33:31;;;;;;;;;1.67;1.67;;;;;43.14;100.00;101896.47;6175258;23;45401;-87
2022/04/14 11:36:06;;;;;;;;;1.33;1.33;;;;;44.46;100.00;101891.69;6169262;23;45253;-88
2022/04/14 11:38:54;;;;;;;;;3.00;3.00;;;;;45.87;100.00;101897.31;6278728;22;45459;-90
2022/04/14 11:41:42;;;;;;;;;3.00;3.00;;;;;46.80;92.58;101902.03;6337469;22;47950;-88
2022/04/14 11:44:30;;;;;;;;;4.00;3.00;;;;;47.48;89.67;101889.16;6336435;22;45383;-88
2022/04/14 11:46:58;;;;;;;;;3.00;3.00;;;;;48.53;86.73;101897.59;6337852;22;45389;-85
2022/04/14 11:49:25;;;;;;;;;3.67;2.33;;;;;47.15;79.62;101903.38;6306147;22;45232;-86
2022/04/14 11:51:53;;;;;;;;;3.67;3.67;;;;;45.74;79.15;101900.28;6305328;22;46587;-88
2022/04/14 11:54:26;;;;;;;;;5.00;4.00;;;;;46.32;78.37;101894.28;6337400;22;45260;-89
2022/04/14 11:56:55;;;;;;;;;4.33;3.33;;;;;46.18;76.91;101890.00;6334613;22;45382;-87
2022/04/14 11:59:36;;;;;;;;;3.00;2.33;;;;;47.41;76.55;101879.69;6331199;22;45359;-87
2022/04/14 12:02:03;;;;;;;;;5.00;4.00;;;;;48.53;76.48;101876.19;6334135;22;47107;-86
2022/04/14 12:04:37;;;;;;;;;2.00;2.00;;;;;49.77;72.85;101881.25;6331202;22;45473;-87
2022/04/14 12:07:02;;;;;;;;;2.67;2.67;;;;;50.97;71.89;101890.56;6332218;22;45357;-87
2022/04/14 12:09:28;;;;;;;;;1.33;0.67;;;;;50.40;65.95;101886.59;6301820;22;45375;-87
2022/04/14 12:11:53;;;;;;;;;1.33;1.33;;;;;48.22;64.02;101890.44;6330307;22;46021;-87
2022/04/14 12:14:20;;;;;;;;;1.00;1.00;;;;;45.74;61.95;101889.19;6303524;22;45344;-87
2022/04/14 12:16:47;;;;;;;;;1.00;1.00;;;;;44.32;63.58;101879.88;6302020;22;45725;-87